createdAt,value
2017-05-29T00:00:49.693Z,17.55
2017-05-29T00:01:02.115Z,17.55
2017-05-29T00:01:15.003Z,17.57
2017-05-29T00:01:28.410Z,17.54
2017-05-29T00:01:41.322Z,17.52
2017-05-29T00:01:54.192Z,17.49
2017-05-29T00:02:06.578Z,17.54
2017-05-29T00:02:19.518Z,17.52
2017-05-29T00:02:32.446Z,17.49
2017-05-29T00:02:45.856Z,17.54
2017-05-29T00:02:58.186Z,17.5
2017-05-29T00:03:11.650Z,17.49
2017-05-29T00:03:25.032Z,17.49
2017-05-29T00:03:37.932Z,17.57
2017-05-29T00:03:51.412Z,17.52
2017-05-29T00:04:04.331Z,17.57
2017-05-29T00:04:17.258Z,17.52
2017-05-29T00:04:30.653Z,17.52
2017-05-29T00:04:44.060Z,17.54
2017-05-29T00:05:27.624Z,17.5
2017-05-29T00:06:12.250Z,17.57
2017-05-29T00:06:57.581Z,17.6
2017-05-29T00:07:54.969Z,17.52
2017-05-29T00:09:11.633Z,17.54
2017-05-29T00:14:47.023Z,17.36
2017-05-29T00:15:00.438Z,17.45
2017-05-29T00:15:12.855Z,17.46
2017-05-29T00:15:25.729Z,17.46
2017-05-29T00:16:09.781Z,17.43
2017-05-29T00:16:46.963Z,17.43
2017-05-29T00:16:59.856Z,17.39
2017-05-29T00:17:12.676Z,17.42
2017-05-29T00:17:26.056Z,17.45
2017-05-29T00:17:39.447Z,17.43
2017-05-29T00:17:52.851Z,17.3
2017-05-29T00:18:05.724Z,17.32
2017-05-29T00:18:19.151Z,17.36
2017-05-29T00:18:32.531Z,17.31
2017-05-29T00:18:45.448Z,17.32
2017-05-29T00:18:58.330Z,17.39
2017-05-29T00:19:11.694Z,17.39
2017-05-29T00:19:24.108Z,17.36
2017-05-29T00:20:39.294Z,17.35
2017-05-29T00:21:30.769Z,17.38
2017-05-29T00:21:58.486Z,17.42
2017-05-29T00:22:13.394Z,17.42
2017-05-29T00:22:59.951Z,17.36
2017-05-29T00:23:12.279Z,17.42
2017-05-29T00:23:25.141Z,17.28
2017-05-29T00:23:38.017Z,17.38
2017-05-29T00:23:51.506Z,17.28
2017-05-29T00:24:04.940Z,17.31
2017-05-29T00:24:16.703Z,17.28
2017-05-29T00:24:30.157Z,17.3
2017-05-29T00:24:43.595Z,17.28
2017-05-29T00:24:57.112Z,17.25
2017-05-29T00:25:09.780Z,17.28
2017-05-29T00:25:22.677Z,17.25
2017-05-29T00:25:36.096Z,17.22
2017-05-29T00:25:55.738Z,17.24
2017-05-29T00:27:56.378Z,17.24
2017-05-29T00:30:08.343Z,17.2
2017-05-29T00:34:07.938Z,17.18
2017-05-29T00:35:35.603Z,17.25
2017-05-29T00:36:23.201Z,17.25
2017-05-29T00:37:00.176Z,17.36
2017-05-29T00:37:13.108Z,17.38
2017-05-29T00:37:25.964Z,17.4
2017-05-29T00:37:39.373Z,17.31
2017-05-29T00:37:52.910Z,17.39
2017-05-29T00:38:05.799Z,17.3
2017-05-29T00:38:19.204Z,17.39
2017-05-29T00:38:32.661Z,17.32
2017-05-29T00:54:53.936Z,17.06
2017-05-29T00:55:06.820Z,17.07
2017-05-29T00:55:20.221Z,17.05
2017-05-29T00:55:33.132Z,17.05
2017-05-29T00:55:46.525Z,17.05
2017-05-29T00:55:59.434Z,17.05
2017-05-29T00:56:12.887Z,17.03
2017-05-29T00:56:25.830Z,17.12
2017-05-29T00:56:39.164Z,17
2017-05-29T00:56:52.035Z,17.03
2017-05-29T00:57:05.518Z,17.12
2017-05-29T00:57:18.558Z,17.05
2017-05-29T00:57:31.990Z,17.12
2017-05-29T00:58:17.846Z,17.09
2017-05-29T00:59:22.858Z,17.13
2017-05-29T00:59:36.288Z,17.12
2017-05-29T00:59:49.709Z,17.17
2017-05-29T01:00:02.786Z,17.06
2017-05-29T01:00:16.250Z,17.07
2017-05-29T01:00:29.691Z,17.06
2017-05-29T01:00:43.092Z,17.12
2017-05-29T01:00:55.970Z,17.09
2017-05-29T01:01:09.391Z,17.1
2017-05-29T01:01:21.893Z,17.05
2017-05-29T01:01:35.284Z,17.12
2017-05-29T01:01:48.216Z,17.17
2017-05-29T01:03:04.646Z,17.02
2017-05-29T01:05:05.248Z,17.15
2017-05-29T01:08:20.144Z,17.03
2017-05-29T01:09:03.973Z,17.1
2017-05-29T01:09:17.398Z,17.06
2017-05-29T01:09:30.469Z,17.13
2017-05-29T01:09:43.892Z,17.07
2017-05-29T01:09:57.334Z,17.12
2017-05-29T01:10:47.204Z,17.07
2017-05-29T01:11:00.106Z,17.17
2017-05-29T01:12:41.798Z,17
2017-05-29T01:13:59.132Z,17
2017-05-29T01:15:32.739Z,16.95
2017-05-29T01:16:16.812Z,17.02
2017-05-29T01:20:04.274Z,16.9
2017-05-29T01:23:05.387Z,16.87
2017-05-29T01:27:44.835Z,17
2017-05-29T01:27:58.250Z,16.97
2017-05-29T01:28:10.609Z,17
2017-05-29T01:28:22.970Z,17
2017-05-29T01:28:36.379Z,17.12
2017-05-29T01:28:49.245Z,17.07
2017-05-29T01:29:02.767Z,17.06
2017-05-29T01:29:16.216Z,17.03
2017-05-29T01:29:29.141Z,17.12
2017-05-29T01:29:42.540Z,17.06
2017-05-29T01:29:55.963Z,17.07
2017-05-29T01:30:08.814Z,17.03
2017-05-29T01:32:38.478Z,16.94
2017-05-29T01:33:35.557Z,16.91
2017-05-29T01:33:51.713Z,17.02
2017-05-29T01:34:49.225Z,16.87
2017-05-29T01:36:44.408Z,16.87
2017-05-29T01:36:57.816Z,17
2017-05-29T01:37:42.380Z,16.95
2017-05-29T01:38:58.078Z,16.91
2017-05-29T01:39:57.817Z,16.95
2017-05-29T01:43:22.837Z,16.95
2017-05-29T01:43:36.323Z,16.97
2017-05-29T01:43:49.858Z,16.95
2017-05-29T01:45:06.706Z,16.95
2017-05-29T01:46:42.619Z,16.99
2017-05-29T01:47:13.965Z,16.99
2017-05-29T01:47:26.920Z,16.99
2017-05-29T01:47:40.530Z,16.99
2017-05-29T01:47:53.369Z,17
2017-05-29T01:48:07.070Z,16.99
2017-05-29T01:48:20.006Z,17
2017-05-29T01:48:33.370Z,16.94
2017-05-29T01:48:46.951Z,17.02
2017-05-29T01:48:59.863Z,16.97
2017-05-29T01:49:12.257Z,17.03
2017-05-29T01:49:24.794Z,17
2017-05-29T01:50:39.506Z,17.02
2017-05-29T01:51:39.764Z,17.12
2017-05-29T01:51:53.170Z,17.1
2017-05-29T01:52:06.062Z,17.13
2017-05-29T01:52:19.530Z,17.2
2017-05-29T01:52:32.994Z,17.17
2017-05-29T01:53:17.306Z,17.13
2017-05-29T01:56:06.913Z,17.3
2017-05-29T02:01:23.207Z,17.3
2017-05-29T02:01:36.816Z,17.45
2017-05-29T02:01:50.198Z,17.42
2017-05-29T02:02:03.632Z,17.4
2017-05-29T02:02:16.496Z,17.46
2017-05-29T02:02:29.306Z,17.43
2017-05-29T02:02:42.743Z,17.42
2017-05-29T02:02:56.162Z,17.4
2017-05-29T02:03:09.530Z,17.46
2017-05-29T02:03:22.397Z,17.4
2017-05-29T02:05:56.515Z,17.39
2017-05-29T02:06:41.509Z,17.36
2017-05-29T02:07:57.206Z,17.5
2017-05-29T02:08:41.249Z,17.38
2017-05-29T02:10:50.874Z,17.45
2017-05-29T02:11:04.293Z,17.5
2017-05-29T02:12:19.994Z,17.4
2017-05-29T02:16:37.168Z,17.54
2017-05-29T02:19:39.770Z,17.55
2017-05-29T02:19:53.180Z,17.62
2017-05-29T02:20:05.010Z,17.62
2017-05-29T02:20:18.297Z,17.63
2017-05-29T02:20:31.135Z,17.71
2017-05-29T02:20:44.451Z,17.68
2017-05-29T02:20:57.767Z,17.68
2017-05-29T02:21:10.635Z,17.68
2017-05-29T02:21:23.490Z,17.66
2017-05-29T02:21:37.084Z,17.68
2017-05-29T02:21:50.047Z,17.66
2017-05-29T02:22:02.554Z,17.6
2017-05-29T02:23:41.002Z,17.76
2017-05-29T02:24:29.610Z,17.71
2017-05-29T02:25:15.601Z,17.77
2017-05-29T02:26:59.297Z,17.71
2017-05-29T02:27:43.897Z,17.8
2017-05-29T02:29:01.175Z,17.8
2017-05-29T02:30:17.118Z,17.83
2017-05-29T02:31:08.151Z,17.83
2017-05-29T02:32:56.030Z,17.73
2017-05-29T02:33:40.601Z,17.68
2017-05-29T02:33:55.431Z,17.8
2017-05-29T02:34:52.239Z,17.73
2017-05-29T02:35:36.726Z,17.77
2017-05-29T02:36:03.849Z,17.79
2017-05-29T02:37:19.535Z,17.76
2017-05-29T02:37:32.736Z,17.79
2017-05-29T02:37:52.862Z,17.79
2017-05-29T02:38:05.917Z,17.71
2017-05-29T02:38:18.314Z,17.8
2017-05-29T02:38:31.780Z,17.73
2017-05-29T02:38:45.148Z,17.76
2017-05-29T02:38:58.482Z,17.76
2017-05-29T02:39:11.870Z,17.77
2017-05-29T02:39:24.693Z,17.73
2017-05-29T02:39:38.066Z,17.66
2017-05-29T02:39:51.343Z,17.77
2017-05-29T02:40:04.708Z,17.74
2017-05-29T02:40:17.608Z,17.71
2017-05-29T02:40:31.061Z,17.73
2017-05-29T02:41:25.846Z,17.73
2017-05-29T02:42:09.945Z,17.73
2017-05-29T02:42:29.148Z,17.76
2017-05-29T02:42:42.637Z,17.76
2017-05-29T02:43:28.828Z,17.79
2017-05-29T02:44:55.313Z,17.81
2017-05-29T02:45:21.443Z,17.81
2017-05-29T02:45:36.835Z,17.81
2017-05-29T02:45:52.229Z,17.98
2017-05-29T02:46:05.983Z,17.96
2017-05-29T02:46:28.763Z,17.84
2017-05-29T02:47:13.194Z,17.79
2017-05-29T02:47:25.091Z,17.88
2017-05-29T02:48:15.606Z,17.81
2017-05-29T02:48:28.641Z,17.74
2017-05-29T02:49:14.006Z,17.86
2017-05-29T02:50:11.230Z,17.77
2017-05-29T02:50:32.169Z,17.81
2017-05-29T02:51:17.778Z,17.73
2017-05-29T02:51:36.254Z,17.73
2017-05-29T02:51:49.771Z,17.73
2017-05-29T02:52:08.338Z,17.71
2017-05-29T02:52:21.798Z,17.79
2017-05-29T02:53:45.349Z,17.71
2017-05-29T02:54:01.331Z,17.73
2017-05-29T02:54:24.048Z,17.62
2017-05-29T02:54:37.475Z,17.63
2017-05-29T02:54:50.945Z,17.58
2017-05-29T02:55:03.841Z,17.63
2017-05-29T02:55:16.864Z,17.55
2017-05-29T02:55:29.226Z,17.57
2017-05-29T02:55:41.601Z,17.54
2017-05-29T02:55:54.471Z,17.54
2017-05-29T02:56:08.209Z,17.43
2017-05-29T02:56:21.121Z,17.39
2017-05-29T02:58:23.402Z,17.24
2017-05-29T02:58:41.786Z,17.21
2017-05-29T02:58:55.140Z,17.22
2017-05-29T02:59:08.585Z,17.2
2017-05-29T02:59:20.937Z,17.2
2017-05-29T02:59:33.786Z,17.24
2017-05-29T02:59:47.145Z,17.2
2017-05-29T03:00:00.643Z,17.2
2017-05-29T03:00:14.099Z,17.13
2017-05-29T03:00:26.997Z,17.18
2017-05-29T03:00:39.904Z,17.17
2017-05-29T03:00:53.309Z,17.18
2017-05-29T03:01:06.714Z,17.13
2017-05-29T03:01:54.734Z,17.06
2017-05-29T03:02:29.809Z,17
2017-05-29T03:02:42.709Z,17.02
2017-05-29T03:02:55.504Z,16.99
2017-05-29T03:03:07.917Z,17.02
2017-05-29T03:03:20.221Z,16.99
2017-05-29T03:03:33.665Z,16.95
2017-05-29T03:03:46.657Z,17.03
2017-05-29T03:04:00.005Z,16.92
2017-05-29T03:04:13.875Z,16.97
2017-05-29T03:04:29.668Z,16.9
2017-05-29T03:04:43.189Z,16.97
2017-05-29T03:05:00.378Z,17
2017-05-29T03:05:14.564Z,16.95
2017-05-29T03:05:28.221Z,16.97
2017-05-29T03:05:42.678Z,16.99
2017-05-29T03:05:56.106Z,16.92
2017-05-29T03:06:09.795Z,16.91
2017-05-29T03:06:23.150Z,16.94
2017-05-29T03:06:37.341Z,16.91
2017-05-29T03:06:51.063Z,16.85
2017-05-29T03:07:04.577Z,16.84
2017-05-29T03:07:17.505Z,16.9
2017-05-29T03:07:31.003Z,16.87
2017-05-29T03:07:44.662Z,16.88
2017-05-29T03:07:58.478Z,16.81
2017-05-29T03:08:12.875Z,16.81
2017-05-29T03:08:27.489Z,16.85
2017-05-29T03:08:40.984Z,16.87
2017-05-29T03:09:02.697Z,16.81
2017-05-29T03:09:16.133Z,16.76
2017-05-29T03:09:29.001Z,16.72
2017-05-29T03:09:42.577Z,16.88
2017-05-29T03:09:56.013Z,16.7
2017-05-29T03:10:08.939Z,16.85
2017-05-29T03:10:21.898Z,16.77
2017-05-29T03:10:35.453Z,16.87
2017-05-29T03:10:48.912Z,16.72
2017-05-29T03:11:02.396Z,16.73
2017-05-29T03:11:15.294Z,16.77
2017-05-29T03:11:27.700Z,16.74
2017-05-29T03:11:41.119Z,16.76
2017-05-29T03:11:54.528Z,16.74
2017-05-29T03:12:07.435Z,16.84
2017-05-29T03:12:20.379Z,16.8
2017-05-29T03:12:32.266Z,16.69
2017-05-29T03:12:45.118Z,16.8
2017-05-29T03:12:58.539Z,16.76
2017-05-29T03:13:11.431Z,16.77
2017-05-29T03:13:24.310Z,16.82
2017-05-29T03:13:36.811Z,16.76
2017-05-29T03:13:50.238Z,16.76
2017-05-29T03:14:03.621Z,16.74
2017-05-29T03:14:16.469Z,16.74
2017-05-29T03:14:32.538Z,16.62
2017-05-29T03:14:45.427Z,16.67
2017-05-29T03:14:58.931Z,16.73
2017-05-29T03:15:12.270Z,16.72
2017-05-29T03:15:25.231Z,16.74
2017-05-29T03:15:38.677Z,16.74
2017-05-29T03:15:52.146Z,16.66
2017-05-29T03:16:05.582Z,16.76
2017-05-29T03:16:18.981Z,16.74
2017-05-29T03:16:32.398Z,16.7
2017-05-29T03:16:45.781Z,16.69
2017-05-29T03:16:58.613Z,16.63
2017-05-29T03:17:11.517Z,16.74
2017-05-29T03:17:24.980Z,16.66
2017-05-29T03:17:37.956Z,16.72
2017-05-29T03:17:51.339Z,16.74
2017-05-29T03:18:04.774Z,16.76
2017-05-29T03:18:17.387Z,16.72
2017-05-29T03:18:30.766Z,16.76
2017-05-29T03:18:44.300Z,16.7
2017-05-29T03:18:57.807Z,16.77
2017-05-29T03:19:10.799Z,16.72
2017-05-29T03:19:23.706Z,16.74
2017-05-29T03:19:36.623Z,16.81
2017-05-29T03:19:49.569Z,16.76
2017-05-29T03:20:03.062Z,16.73
2017-05-29T03:20:15.492Z,16.76
2017-05-29T03:20:27.842Z,16.77
2017-05-29T03:20:41.295Z,16.73
2017-05-29T03:20:54.765Z,16.72
2017-05-29T03:21:09.023Z,16.73
2017-05-29T03:21:22.440Z,16.73
2017-05-29T03:21:35.295Z,16.77
2017-05-29T03:21:48.249Z,16.73
2017-05-29T03:22:01.253Z,16.82
2017-05-29T03:22:14.787Z,16.8
2017-05-29T03:22:27.728Z,16.74
2017-05-29T03:22:41.167Z,16.73
2017-05-29T03:22:54.000Z,16.8
2017-05-29T03:23:07.473Z,16.8
2017-05-29T03:23:20.357Z,16.76
2017-05-29T03:23:33.848Z,16.7
2017-05-29T03:23:46.811Z,16.66
2017-05-29T03:24:00.305Z,16.74
2017-05-29T03:24:13.238Z,16.7
2017-05-29T03:24:26.655Z,16.81
2017-05-29T03:24:39.478Z,16.72
2017-05-29T03:24:52.341Z,16.77
2017-05-29T03:25:05.807Z,16.74
2017-05-29T03:25:18.220Z,16.67
2017-05-29T03:25:31.149Z,16.66
2017-05-29T03:25:44.075Z,16.76
2017-05-29T03:25:56.986Z,16.66
2017-05-29T03:26:09.409Z,16.73
2017-05-29T03:26:21.804Z,16.67
2017-05-29T03:26:34.699Z,16.73
2017-05-29T03:26:48.095Z,16.72
2017-05-29T03:27:00.494Z,16.69
2017-05-29T03:27:12.787Z,16.67
2017-05-29T03:27:26.147Z,16.69
2017-05-29T03:27:39.592Z,16.73
2017-05-29T03:27:52.979Z,16.67
2017-05-29T03:28:05.903Z,16.7
2017-05-29T03:28:18.268Z,16.63
2017-05-29T03:28:31.245Z,16.7
2017-05-29T03:28:44.716Z,16.65
2017-05-29T03:28:58.174Z,16.74
2017-05-29T03:29:11.621Z,16.69
2017-05-29T03:29:25.081Z,16.72
2017-05-29T03:29:38.471Z,16.67
2017-05-29T03:29:51.911Z,16.62
2017-05-29T03:30:05.458Z,16.73
2017-05-29T03:30:18.862Z,16.76
2017-05-29T03:30:31.164Z,16.8
2017-05-29T03:30:43.652Z,16.66
2017-05-29T03:30:56.571Z,16.72
2017-05-29T03:31:10.013Z,16.69
2017-05-29T03:31:23.424Z,16.74
2017-05-29T03:31:36.869Z,16.76
2017-05-29T03:31:49.831Z,16.76
2017-05-29T03:32:02.769Z,16.76
2017-05-29T03:32:16.195Z,16.73
2017-05-29T03:32:29.628Z,16.74
2017-05-29T03:32:41.987Z,16.72
2017-05-29T03:32:55.387Z,16.77
2017-05-29T03:33:08.778Z,16.88
2017-05-29T03:33:22.191Z,16.87
2017-05-29T03:33:35.100Z,16.9
2017-05-29T03:33:48.484Z,16.74
2017-05-29T03:34:01.952Z,16.84
2017-05-29T03:34:14.852Z,16.82
2017-05-29T03:34:28.267Z,16.91
2017-05-29T03:34:41.710Z,16.85
2017-05-29T03:34:55.043Z,16.82
2017-05-29T03:35:08.514Z,16.87
2017-05-29T03:35:22.001Z,16.87
2017-05-29T03:35:35.433Z,16.84
2017-05-29T03:35:48.839Z,16.91
2017-05-29T03:36:02.316Z,16.84
2017-05-29T03:36:15.709Z,16.9
2017-05-29T03:36:28.562Z,16.9
2017-05-29T03:36:41.436Z,16.88
2017-05-29T03:36:54.813Z,16.88
2017-05-29T03:37:07.695Z,16.81
2017-05-29T03:37:21.225Z,16.84
2017-05-29T03:37:34.178Z,16.87
2017-05-29T03:37:47.636Z,16.92
2017-05-29T03:37:59.476Z,16.88
2017-05-29T03:38:12.419Z,16.92
2017-05-29T03:38:25.307Z,16.84
2017-05-29T03:38:38.818Z,16.81
2017-05-29T03:38:51.709Z,16.94
2017-05-29T03:39:04.089Z,16.97
2017-05-29T03:39:16.496Z,16.99
2017-05-29T03:39:29.927Z,16.85
2017-05-29T03:39:42.777Z,17.03
2017-05-29T03:39:55.670Z,16.9
2017-05-29T03:40:08.603Z,16.87
2017-05-29T03:40:20.940Z,16.92
2017-05-29T03:40:34.319Z,16.92
2017-05-29T03:40:47.723Z,16.92
2017-05-29T03:41:01.157Z,16.92
2017-05-29T03:41:13.977Z,17.02
2017-05-29T03:41:27.321Z,17.02
2017-05-29T03:41:40.758Z,16.99
2017-05-29T03:41:54.176Z,16.95
2017-05-29T03:42:06.523Z,16.99
2017-05-29T03:42:19.404Z,17
2017-05-29T03:42:32.270Z,17.02
2017-05-29T03:42:45.684Z,17.02
2017-05-29T03:42:58.008Z,17
2017-05-29T03:43:10.423Z,16.99
2017-05-29T03:43:23.859Z,17
2017-05-29T03:43:37.287Z,17.03
2017-05-29T03:43:50.171Z,17.03
2017-05-29T03:44:03.110Z,17.02
2017-05-29T03:44:16.048Z,17.05
2017-05-29T03:44:29.504Z,16.99
2017-05-29T03:44:42.917Z,17.15
2017-05-29T03:44:55.797Z,17.06
2017-05-29T03:45:08.620Z,16.95
2017-05-29T03:45:22.016Z,17.07
2017-05-29T03:45:35.426Z,17.06
2017-05-29T03:45:48.830Z,16.99
2017-05-29T03:46:02.172Z,17
2017-05-29T03:46:14.564Z,17.03
2017-05-29T03:46:27.956Z,17.13
2017-05-29T03:46:41.297Z,16.99
2017-05-29T03:46:54.672Z,17.05
2017-05-29T03:47:07.058Z,17.05
2017-05-29T03:47:19.947Z,17.05
2017-05-29T03:47:32.368Z,16.99
2017-05-29T03:47:45.255Z,16.99
2017-05-29T03:47:58.235Z,17
2017-05-29T03:48:10.572Z,16.94
2017-05-29T03:48:23.469Z,16.92
2017-05-29T03:48:36.256Z,17.03
2017-05-29T03:48:48.639Z,17.02
2017-05-29T03:49:02.267Z,16.94
2017-05-29T03:49:14.048Z,17
2017-05-29T03:49:26.435Z,17.02
2017-05-29T03:49:39.831Z,17
2017-05-29T03:49:53.196Z,16.97
2017-05-29T03:50:06.010Z,17
2017-05-29T03:50:18.357Z,16.97
2017-05-29T03:50:31.796Z,17.05
2017-05-29T03:50:44.099Z,17.02
2017-05-29T03:50:57.555Z,17.05
2017-05-29T03:51:10.933Z,17.03
2017-05-29T03:51:23.021Z,17.12
2017-05-29T03:51:35.363Z,17.17
2017-05-29T03:51:48.254Z,17.18
2017-05-29T03:52:00.655Z,17.2
2017-05-29T03:52:13.530Z,17.21
2017-05-29T03:52:27.057Z,17.18
2017-05-29T03:52:40.178Z,17.2
2017-05-29T03:52:53.713Z,17.2
2017-05-29T03:53:07.109Z,17.18
2017-05-29T03:53:19.850Z,17.27
2017-05-29T03:53:32.266Z,17.17
2017-05-29T03:53:45.688Z,17.28
2017-05-29T03:53:59.144Z,17.25
2017-05-29T03:54:10.946Z,17.31
2017-05-29T03:54:23.815Z,17.3
2017-05-29T03:54:36.680Z,17.25
2017-05-29T03:54:50.099Z,17.27
2017-05-29T03:55:03.604Z,17.28
2017-05-29T03:55:16.567Z,17.27
2017-05-29T03:55:29.476Z,17.3
2017-05-29T03:55:42.914Z,17.25
2017-05-29T03:55:56.335Z,17.28
2017-05-29T03:56:09.204Z,17.35
2017-05-29T03:56:22.091Z,17.3
2017-05-29T03:56:35.492Z,17.28
2017-05-29T03:56:47.883Z,17.38
2017-05-29T03:57:01.335Z,17.36
2017-05-29T03:57:13.740Z,17.38
2017-05-29T03:57:27.141Z,17.43
2017-05-29T03:57:40.580Z,17.36
2017-05-29T03:57:53.442Z,17.38
2017-05-29T03:58:06.883Z,17.38
2017-05-29T03:58:18.744Z,17.35
2017-05-29T03:58:31.579Z,17.36
2017-05-29T03:58:45.024Z,17.39
2017-05-29T03:58:57.943Z,17.32
2017-05-29T03:59:10.359Z,17.3
2017-05-29T03:59:23.783Z,17.4
2017-05-29T03:59:36.721Z,17.46
2017-05-29T03:59:50.155Z,17.42
2017-05-29T04:00:03.112Z,17.39
2017-05-29T04:00:15.974Z,17.45
2017-05-29T04:00:28.858Z,17.35
2017-05-29T04:00:42.210Z,17.38
2017-05-29T04:00:55.634Z,17.47
2017-05-29T04:01:08.473Z,17.39
2017-05-29T04:01:20.866Z,17.4
2017-05-29T04:01:34.230Z,17.38
2017-05-29T04:01:47.578Z,17.32
2017-05-29T04:02:01.101Z,17.35
2017-05-29T04:02:14.580Z,17.35
2017-05-29T04:02:27.480Z,17.43
2017-05-29T04:02:40.911Z,17.32
2017-05-29T04:02:54.310Z,17.43
2017-05-29T04:03:06.707Z,17.42
2017-05-29T04:03:19.624Z,17.36
2017-05-29T04:03:33.059Z,17.31
2017-05-29T04:03:46.498Z,17.31
2017-05-29T04:03:59.937Z,17.3
2017-05-29T04:04:13.763Z,17.39
2017-05-29T04:04:26.696Z,17.36
2017-05-29T04:04:39.576Z,17.31
2017-05-29T04:04:52.440Z,17.4
2017-05-29T04:05:05.367Z,17.36
2017-05-29T04:05:18.220Z,17.39
2017-05-29T04:05:30.632Z,17.32
2017-05-29T04:05:44.104Z,17.31
2017-05-29T04:05:57.004Z,17.32
2017-05-29T04:06:09.797Z,17.43
2017-05-29T04:06:23.367Z,17.38
2017-05-29T04:06:36.805Z,17.35
2017-05-29T04:06:49.658Z,17.31
2017-05-29T04:07:03.084Z,17.45
2017-05-29T04:07:16.538Z,17.3
2017-05-29T04:07:29.176Z,17.36
2017-05-29T04:07:42.100Z,17.32
2017-05-29T04:07:55.501Z,17.35
2017-05-29T04:08:08.339Z,17.32
2017-05-29T04:08:21.237Z,17.35
2017-05-29T04:08:34.112Z,17.4
2017-05-29T04:08:47.740Z,17.28
2017-05-29T04:09:01.126Z,17.3
2017-05-29T04:09:13.488Z,17.35
2017-05-29T04:09:26.997Z,17.28
2017-05-29T04:09:40.468Z,17.27
2017-05-29T04:09:53.357Z,17.31
2017-05-29T04:10:06.720Z,17.35
2017-05-29T04:10:19.598Z,17.28
2017-05-29T04:10:32.503Z,17.25
2017-05-29T04:10:45.986Z,17.32
2017-05-29T04:10:58.337Z,17.28
2017-05-29T04:11:11.740Z,17.25
2017-05-29T04:11:25.142Z,17.24
2017-05-29T04:11:38.026Z,17.24
2017-05-29T04:11:50.970Z,17.27
2017-05-29T04:12:03.995Z,17.3
2017-05-29T04:12:16.826Z,17.25
2017-05-29T04:12:30.255Z,17.25
2017-05-29T04:12:43.151Z,17.3
2017-05-29T04:12:56.582Z,17.27
2017-05-29T04:13:09.985Z,17.24
2017-05-29T04:13:22.580Z,17.31
2017-05-29T04:13:34.962Z,17.24
2017-05-29T04:13:47.875Z,17.22
2017-05-29T04:14:01.313Z,17.27
2017-05-29T04:14:14.772Z,17.24
2017-05-29T04:14:27.687Z,17.28
2017-05-29T04:14:40.589Z,17.25
2017-05-29T04:14:53.963Z,17.27
2017-05-29T04:15:07.375Z,17.27
2017-05-29T04:15:19.725Z,17.22
2017-05-29T04:15:33.141Z,17.27
2017-05-29T04:15:46.081Z,17.22
2017-05-29T04:15:59.425Z,17.27
2017-05-29T04:16:11.774Z,17.31
2017-05-29T04:16:25.234Z,17.25
2017-05-29T04:16:38.605Z,17.28
2017-05-29T04:16:52.109Z,17.28
2017-05-29T04:17:05.480Z,17.28
2017-05-29T04:17:18.397Z,17.24
2017-05-29T04:17:30.746Z,17.28
2017-05-29T04:17:44.216Z,17.28
2017-05-29T04:17:57.643Z,17.3
2017-05-29T04:18:10.572Z,17.28
2017-05-29T04:18:23.552Z,17.24
2017-05-29T04:18:36.404Z,17.28
2017-05-29T04:18:49.800Z,17.27
2017-05-29T04:19:03.310Z,17.32
2017-05-29T04:19:16.410Z,17.31
2017-05-29T04:19:29.343Z,17.25
2017-05-29T04:19:42.799Z,17.25
2017-05-29T04:19:55.620Z,17.32
2017-05-29T04:20:08.517Z,17.28
2017-05-29T04:20:21.423Z,17.27
2017-05-29T04:20:34.258Z,17.3
2017-05-29T04:20:47.644Z,17.36
2017-05-29T04:21:00.504Z,17.36
2017-05-29T04:21:12.871Z,17.25
2017-05-29T04:21:25.245Z,17.4
2017-05-29T04:21:38.082Z,17.4
2017-05-29T04:21:50.981Z,17.36
2017-05-29T04:22:04.017Z,17.3
2017-05-29T04:22:16.877Z,17.38
2017-05-29T04:22:30.251Z,17.31
2017-05-29T04:22:43.689Z,17.31
2017-05-29T04:22:57.140Z,17.28
2017-05-29T04:23:10.604Z,17.36
2017-05-29T04:23:23.492Z,17.36
2017-05-29T04:23:36.385Z,17.25
2017-05-29T04:23:49.860Z,17.38
2017-05-29T04:24:02.718Z,17.36
2017-05-29T04:24:15.083Z,17.39
2017-05-29T04:24:28.000Z,17.42
2017-05-29T04:24:41.407Z,17.38
2017-05-29T04:24:54.877Z,17.32
2017-05-29T04:25:07.759Z,17.31
2017-05-29T04:25:19.649Z,17.35
2017-05-29T04:25:33.106Z,17.36
2017-05-29T04:25:46.507Z,17.38
2017-05-29T04:25:59.925Z,17.39
2017-05-29T04:26:11.807Z,17.4
2017-05-29T04:26:25.212Z,17.38
2017-05-29T04:26:38.579Z,17.36
2017-05-29T04:26:51.944Z,17.42
2017-05-29T04:27:05.283Z,17.3
2017-05-29T04:27:18.676Z,17.32
2017-05-29T04:27:31.605Z,17.27
2017-05-29T04:27:45.052Z,17.28
2017-05-29T04:27:58.519Z,17.35
2017-05-29T04:28:11.357Z,17.38
2017-05-29T04:28:23.721Z,17.28
2017-05-29T04:28:37.213Z,17.3
2017-05-29T04:28:50.670Z,17.25
2017-05-29T04:29:03.994Z,17.3
2017-05-29T04:29:16.827Z,17.3
2017-05-29T04:29:30.206Z,17.27
2017-05-29T04:29:43.169Z,17.25
2017-05-29T04:29:56.746Z,17.28
2017-05-29T04:30:09.090Z,17.31
2017-05-29T04:30:22.463Z,17.27
2017-05-29T04:30:35.915Z,17.3
2017-05-29T04:30:49.495Z,17.27
2017-05-29T04:31:01.897Z,17.25
2017-05-29T04:31:15.293Z,17.31
2017-05-29T04:31:28.140Z,17.28
2017-05-29T04:31:41.482Z,17.22
2017-05-29T04:31:54.351Z,17.31
2017-05-29T04:32:07.289Z,17.27
2017-05-29T04:32:20.144Z,17.27
2017-05-29T04:32:32.501Z,17.25
2017-05-29T04:32:45.337Z,17.25
2017-05-29T04:32:58.868Z,17.21
2017-05-29T04:33:12.295Z,17.21
2017-05-29T04:33:24.631Z,17.27
2017-05-29T04:33:38.057Z,17.32
2017-05-29T04:33:50.460Z,17.27
2017-05-29T04:34:03.874Z,17.27
2017-05-29T04:34:17.366Z,17.2
2017-05-29T04:34:31.057Z,17.3
2017-05-29T04:34:43.928Z,17.15
2017-05-29T04:34:57.327Z,17.31
2017-05-29T04:35:09.668Z,17.18
2017-05-29T04:35:22.580Z,17.22
2017-05-29T04:35:35.986Z,17.22
2017-05-29T04:35:49.384Z,17.25
2017-05-29T04:36:02.264Z,17.21
2017-05-29T04:36:15.153Z,17.24
2017-05-29T04:36:28.517Z,17.13
2017-05-29T04:36:41.932Z,17.18
2017-05-29T04:36:55.311Z,17.24
2017-05-29T04:37:08.224Z,17.25
2017-05-29T04:37:21.554Z,17.24
2017-05-29T04:37:35.044Z,17.27
2017-05-29T04:37:47.918Z,17.25
2017-05-29T04:38:00.718Z,17.2
2017-05-29T04:38:14.124Z,17.22
2017-05-29T04:38:26.960Z,17.27
2017-05-29T04:38:40.439Z,17.22
2017-05-29T04:38:53.319Z,17.25
2017-05-29T04:39:06.787Z,17.24
2017-05-29T04:39:19.715Z,17.24
2017-05-29T04:39:33.097Z,17.22
2017-05-29T04:39:46.522Z,17.2
2017-05-29T04:39:59.943Z,17.2
2017-05-29T04:40:12.344Z,17.18
2017-05-29T04:40:25.803Z,17.24
2017-05-29T04:40:38.720Z,17.2
2017-05-29T04:40:52.104Z,17.22
2017-05-29T04:41:05.524Z,17.2
2017-05-29T04:41:18.955Z,17.24
2017-05-29T04:41:31.300Z,17.22
2017-05-29T04:41:44.668Z,17.22
2017-05-29T04:41:57.574Z,17.24
2017-05-29T04:42:10.025Z,17.24
2017-05-29T04:42:22.431Z,17.22
2017-05-29T04:42:35.922Z,17.15
2017-05-29T04:42:49.393Z,17.2
2017-05-29T04:43:02.326Z,17.28
2017-05-29T04:43:14.691Z,17.28
2017-05-29T04:43:27.510Z,17.2
2017-05-29T04:43:40.412Z,17.24
2017-05-29T04:43:53.183Z,17.2
2017-05-29T04:44:06.058Z,17.18
2017-05-29T04:44:19.438Z,17.25
2017-05-29T04:44:32.303Z,17.25
2017-05-29T04:44:45.735Z,17.27
2017-05-29T04:44:58.652Z,17.2
2017-05-29T04:45:12.041Z,17.2
2017-05-29T04:45:24.903Z,17.2
2017-05-29T04:45:50.311Z,17.3
2017-05-29T04:46:03.207Z,17.24
2017-05-29T04:46:16.093Z,17.28
2017-05-29T04:46:28.999Z,17.24
2017-05-29T04:46:41.940Z,17.22
2017-05-29T04:46:55.354Z,17.24
2017-05-29T04:47:08.237Z,17.24
2017-05-29T04:47:21.654Z,17.24
2017-05-29T04:47:34.483Z,17.25
2017-05-29T04:47:47.966Z,17.22
2017-05-29T04:48:01.455Z,17.27
2017-05-29T04:48:13.833Z,17.15
2017-05-29T04:48:26.763Z,17.3
2017-05-29T04:48:39.692Z,17.24
2017-05-29T04:48:53.109Z,17.22
2017-05-29T04:49:06.530Z,17.27
2017-05-29T04:49:19.964Z,17.22
2017-05-29T04:49:32.632Z,17.22
2017-05-29T04:49:46.050Z,17.31
2017-05-29T04:49:58.950Z,17.25
2017-05-29T04:50:12.409Z,17.31
2017-05-29T04:50:25.827Z,17.24
2017-05-29T04:50:38.179Z,17.31
2017-05-29T04:50:51.550Z,17.25
2017-05-29T04:51:04.981Z,17.3
2017-05-29T04:51:17.910Z,17.27
2017-05-29T04:51:31.326Z,17.24
2017-05-29T04:51:44.721Z,17.24
2017-05-29T04:51:57.625Z,17.21
2017-05-29T04:52:11.079Z,17.24
2017-05-29T04:52:24.550Z,17.25
2017-05-29T04:52:37.407Z,17.25
2017-05-29T04:52:50.859Z,17.28
2017-05-29T04:53:04.248Z,17.24
2017-05-29T04:53:16.673Z,17.24
2017-05-29T04:53:30.154Z,17.27
2017-05-29T04:53:43.554Z,17.27
2017-05-29T04:53:57.014Z,17.22
2017-05-29T04:54:10.454Z,17.27